createdAt,value
2022-09-03T00:00:25.122Z,57.52
2022-09-03T00:03:04.114Z,57.67
2022-09-03T00:05:55.311Z,58.10
2022-09-03T00:08:40.872Z,58.35
2022-09-03T00:11:36.152Z,58.46
2022-09-03T00:14:11.937Z,58.29
2022-09-03T00:17:15.540Z,58.57
2022-09-03T00:20:03.532Z,58.48
2022-09-03T00:22:38.870Z,58.55
2022-09-03T00:25:12.178Z,59.25
2022-09-03T00:27:41.239Z,59.17
2022-09-03T00:30:17.089Z,59.42
2022-09-03T00:32:53.164Z,59.29
2022-09-03T00:35:34.475Z,59.52
2022-09-03T00:38:22.492Z,59.48
2022-09-03T00:41:12.127Z,59.50
2022-09-03T00:44:29.528Z,59.75
2022-09-03T00:47:37.411Z,60.01
2022-09-03T00:50:43.292Z,60.13
2022-09-03T00:53:55.215Z,60.09
2022-09-03T00:57:16.058Z,60.18
2022-09-03T01:00:06.368Z,60.05
2022-09-03T01:03:31.454Z,60.13
2022-09-03T01:06:35.410Z,60.13
2022-09-03T01:09:48.261Z,60.32
2022-09-03T01:12:59.907Z,60.30
2022-09-03T01:16:03.651Z,60.39
2022-09-03T01:18:43.496Z,60.47
2022-09-03T01:21:28.659Z,60.54
2022-09-03T01:24:20.198Z,60.83
2022-09-03T01:27:16.024Z,61.17
2022-09-03T01:30:06.124Z,61.47
2022-09-03T01:33:01.952Z,61.69
2022-09-03T01:35:57.308Z,61.88
2022-09-03T01:38:55.515Z,62.19
2022-09-03T01:42:20.369Z,62.33
2022-09-03T01:45:32.519Z,62.37
2022-09-03T01:48:36.355Z,62.56
2022-09-03T01:51:25.871Z,62.69
2022-09-03T01:58:33.941Z,63.04
2022-09-03T02:01:35.494Z,63.38
2022-09-03T02:04:27.311Z,63.49
2022-09-03T02:07:14.399Z,63.89
2022-09-03T02:14:12.857Z,64.30
2022-09-03T02:17:02.101Z,64.76
2022-09-03T02:19:49.220Z,64.94
2022-09-03T02:22:36.256Z,65.31
2022-09-03T02:25:29.374Z,65.60
2022-09-03T02:28:17.622Z,65.72
2022-09-03T02:31:05.219Z,65.92
2022-09-03T02:33:52.457Z,66.15
2022-09-03T02:36:43.766Z,66.48
2022-09-03T02:39:30.844Z,66.90
2022-09-03T02:42:19.148Z,67.38
2022-09-03T02:45:20.504Z,67.76
2022-09-03T02:48:10.408Z,68.19
2022-09-03T02:50:57.560Z,68.69
2022-09-03T02:53:24.371Z,69.19
2022-09-03T02:55:51.101Z,69.69
2022-09-03T02:58:17.887Z,70.07
2022-09-03T03:16:33.605Z,71.22
2022-09-03T03:19:20.785Z,71.85
2022-09-03T03:22:07.934Z,72.18
2022-09-03T03:24:34.664Z,72.44
2022-09-03T03:27:01.555Z,72.92
2022-09-03T03:29:29.329Z,73.15
2022-09-03T03:31:56.231Z,73.43
2022-09-03T03:34:23.028Z,73.54
2022-09-03T03:36:49.783Z,73.70
2022-09-03T03:39:16.662Z,73.90
2022-09-03T03:41:43.737Z,74.11
2022-09-03T03:44:10.515Z,74.33
2022-09-03T03:46:39.844Z,74.43
2022-09-03T03:49:08.270Z,74.40
2022-09-03T03:51:36.177Z,74.83
2022-09-03T03:54:05.396Z,75.04
2022-09-03T03:56:33.504Z,75.15
2022-09-03T03:59:00.402Z,75.51
2022-09-03T04:01:28.964Z,75.61
2022-09-03T04:03:56.904Z,75.92
2022-09-03T04:06:24.186Z,76.08
2022-09-03T04:08:51.191Z,76.43
2022-09-03T04:11:23.230Z,76.50
2022-09-03T04:13:53.565Z,76.83
2022-09-03T04:16:23.360Z,77.12
2022-09-03T04:19:03.651Z,77.23
2022-09-03T04:21:40.285Z,77.36
2022-09-03T04:24:07.206Z,77.56
2022-09-03T04:38:59.284Z,78.35
2022-09-03T04:41:28.691Z,78.52
2022-09-03T04:43:57.814Z,78.96
2022-09-03T04:46:33.860Z,79.19
2022-09-03T04:49:02.067Z,79.29
2022-09-03T04:51:30.223Z,79.70
2022-09-03T04:54:01.001Z,80.05
2022-09-03T04:56:30.291Z,80.45
2022-09-03T04:59:02.421Z,80.40
2022-09-03T05:01:31.469Z,80.60
2022-09-03T05:03:59.505Z,80.78
2022-09-03T05:06:27.253Z,80.80
2022-09-03T05:08:55.663Z,81.08
2022-09-03T05:11:23.462Z,80.86
2022-09-03T05:13:52.346Z,80.64
2022-09-03T05:16:20.515Z,80.52
2022-09-03T05:18:47.983Z,80.10
2022-09-03T05:21:16.800Z,80.07
2022-09-03T05:23:45.650Z,80.52
2022-09-03T05:26:20.985Z,80.49
2022-09-03T05:28:48.644Z,80.54
2022-09-03T05:31:18.436Z,80.70
2022-09-03T05:33:50.499Z,80.90
2022-09-03T05:36:18.993Z,81.11
2022-09-03T05:38:47.592Z,80.58
2022-09-03T05:41:19.000Z,80.49
2022-09-03T05:43:52.021Z,80.83
2022-09-03T05:46:19.488Z,80.84
2022-09-03T05:48:46.407Z,81.17
2022-09-03T05:51:18.725Z,81.42
2022-09-03T05:53:48.515Z,81.43
2022-09-03T05:56:18.226Z,81.61
2022-09-03T05:58:51.228Z,81.43
2022-09-03T06:01:25.247Z,81.64
2022-09-03T06:03:58.440Z,81.79
2022-09-03T06:06:27.269Z,82.16
2022-09-03T06:08:55.449Z,82.35
2022-09-03T06:11:24.147Z,82.42
2022-09-03T06:13:51.060Z,82.41
2022-09-03T06:16:17.979Z,82.57
2022-09-03T06:18:54.225Z,82.46
2022-09-03T06:21:22.519Z,82.71
2022-09-03T06:23:56.705Z,83.00
2022-09-03T06:26:28.325Z,82.86
2022-09-03T06:28:56.338Z,82.89
2022-09-03T06:31:24.345Z,83.08
2022-09-03T06:33:53.114Z,83.00
2022-09-03T06:36:20.752Z,83.00
2022-09-03T06:38:48.191Z,82.92
2022-09-03T06:45:07.087Z,82.85
2022-09-03T06:51:26.277Z,82.98
2022-09-03T06:54:29.429Z,83.12
2022-09-03T06:57:16.085Z,83.23
2022-09-03T06:59:43.977Z,83.17
2022-09-03T07:02:11.080Z,83.12
2022-09-03T07:08:35.014Z,82.91
2022-09-03T07:11:11.177Z,82.97
2022-09-03T07:13:46.827Z,82.91
2022-09-03T07:16:35.548Z,83.26
2022-09-03T07:19:04.675Z,83.23
2022-09-03T07:21:34.219Z,83.02
2022-09-03T07:27:51.426Z,82.81
2022-09-03T07:30:38.496Z,82.78
2022-09-03T07:33:25.516Z,82.78
2022-09-03T07:36:17.083Z,83.19
2022-09-03T07:39:04.384Z,83.02
2022-09-03T07:46:30.341Z,82.81
2022-09-03T07:48:58.476Z,82.82
2022-09-03T07:51:30.889Z,82.71
2022-09-03T07:53:59.614Z,82.68
2022-09-03T07:56:27.846Z,82.85
2022-09-03T07:58:56.536Z,82.92
2022-09-03T08:01:25.155Z,83.17
2022-09-03T08:03:56.249Z,83.25
2022-09-03T08:07:00.112Z,83.44
2022-09-03T08:09:26.934Z,83.45
2022-09-03T08:11:53.754Z,83.42
2022-09-03T08:14:20.604Z,83.49
2022-09-03T08:16:48.256Z,83.60
2022-09-03T08:19:15.940Z,83.51
2022-09-03T08:25:24.396Z,83.60
2022-09-03T08:28:29.181Z,83.75
2022-09-03T08:31:21.685Z,83.46
2022-09-03T08:34:10.559Z,83.77
2022-09-03T08:36:59.214Z,83.62
2022-09-03T08:44:06.575Z,83.67
2022-09-03T08:46:56.818Z,83.20
2022-09-03T08:49:48.236Z,83.43
2022-09-03T08:56:31.581Z,83.46
2022-09-03T08:59:01.987Z,83.40
2022-09-03T09:01:28.704Z,83.58
2022-09-03T09:04:17.319Z,83.57
2022-09-03T09:06:50.416Z,83.71
2022-09-03T09:09:48.930Z,83.39
2022-09-03T09:12:41.172Z,83.41
2022-09-03T09:15:22.706Z,83.61
2022-09-03T09:17:55.747Z,83.51
2022-09-03T09:20:25.251Z,83.47
2022-09-03T09:23:06.807Z,83.24
2022-09-03T09:25:39.776Z,83.37
2022-09-03T09:28:18.819Z,83.44
2022-09-03T09:30:48.858Z,83.40
2022-09-03T09:33:20.976Z,83.26
2022-09-03T09:35:47.742Z,83.08
2022-09-03T09:38:23.299Z,82.96
2022-09-03T09:40:50.147Z,83.21
2022-09-03T09:43:21.545Z,83.25
2022-09-03T09:45:50.746Z,83.42
2022-09-03T09:48:23.124Z,83.29
2022-09-03T09:50:50.009Z,83.38
2022-09-03T09:53:21.712Z,83.18
2022-09-03T09:55:56.295Z,83.23
2022-09-03T09:58:25.406Z,83.03
2022-09-03T10:00:56.619Z,83.04
2022-09-03T10:03:27.780Z,82.93
2022-09-03T10:06:25.638Z,82.89
2022-09-03T10:08:54.606Z,82.73
2022-09-03T10:11:25.583Z,82.83
2022-09-03T10:13:55.168Z,82.80
2022-09-03T10:16:36.730Z,83.14
2022-09-03T10:19:11.506Z,83.15
2022-09-03T10:21:55.777Z,83.19
2022-09-03T10:24:28.381Z,83.24
2022-09-03T10:26:56.209Z,83.21
2022-09-03T10:29:29.572Z,83.33
2022-09-03T10:32:11.819Z,83.47
2022-09-03T10:34:38.790Z,83.59
2022-09-03T10:37:43.196Z,83.33
2022-09-03T10:40:31.749Z,83.29
2022-09-03T10:43:46.226Z,83.37
2022-09-03T10:46:20.598Z,83.21
2022-09-03T10:49:02.800Z,83.43
2022-09-03T10:51:36.245Z,83.46
2022-09-03T10:58:07.991Z,83.03
2022-09-03T11:04:46.447Z,82.83
2022-09-03T11:07:17.804Z,82.86
2022-09-03T11:13:44.287Z,83.47
2022-09-03T11:16:20.654Z,83.58
2022-09-03T11:21:42.074Z,83.78
2022-09-03T11:24:33.502Z,84.19
2022-09-03T11:27:32.703Z,84.09
2022-09-03T11:30:57.559Z,84.24
2022-09-03T11:34:38.954Z,84.24
2022-09-03T11:37:43.188Z,84.33
2022-09-03T11:40:18.523Z,84.58
2022-09-03T11:42:46.076Z,85.08
2022-09-03T11:45:26.682Z,85.03
2022-09-03T11:52:10.167Z,85.25
2022-09-03T11:54:57.303Z,85.67
2022-09-03T11:57:45.617Z,85.76
2022-09-03T12:05:20.967Z,86.21
2022-09-03T12:08:48.582Z,86.39
2022-09-03T12:16:27.407Z,86.83
2022-09-03T12:19:29.205Z,86.99
2022-09-03T12:30:18.083Z,87.51
2022-09-03T12:32:47.624Z,87.67
2022-09-03T12:38:06.361Z,88.18
2022-09-03T12:44:27.163Z,88.45
2022-09-03T12:47:40.120Z,88.73
2022-09-03T12:50:27.852Z,88.81
2022-09-03T12:53:26.967Z,89.24
2022-09-03T12:56:16.837Z,89.32
2022-09-03T12:59:11.533Z,89.93
2022-09-03T13:02:05.714Z,90.06
2022-09-03T13:04:53.987Z,90.27
2022-09-03T13:07:43.814Z,90.50
2022-09-03T13:10:35.363Z,91.04
2022-09-03T13:13:30.120Z,91.07
2022-09-03T13:16:35.887Z,91.30
2022-09-03T13:19:25.967Z,91.52
2022-09-03T13:22:27.720Z,91.48
2022-09-03T13:25:34.823Z,91.48
2022-09-03T13:28:39.971Z,91.89
2022-09-03T13:31:44.306Z,91.87
2022-09-03T13:43:03.364Z,92.69
2022-09-03T13:45:58.393Z,92.64
2022-09-03T13:49:04.469Z,92.95
2022-09-03T13:52:02.744Z,93.14
2022-09-03T13:55:02.693Z,93.50
2022-09-03T13:58:01.003Z,93.36
2022-09-03T14:01:23.378Z,93.87
2022-09-03T14:04:59.365Z,94.10
2022-09-03T14:07:57.974Z,94.49
2022-09-03T14:11:00.947Z,94.57
2022-09-03T14:13:47.972Z,94.69
2022-09-03T14:16:59.721Z,94.84
2022-09-03T14:20:06.741Z,94.70
2022-09-03T14:23:08.443Z,94.55
2022-09-03T14:30:18.481Z,94.78
2022-09-03T14:33:05.578Z,94.92
2022-09-03T14:36:17.758Z,94.92
2022-09-03T14:39:32.502Z,95.20
2022-09-03T14:42:40.061Z,95.29
2022-09-03T14:49:45.990Z,95.67
2022-09-03T14:53:06.300Z,95.84
2022-09-03T14:56:13.200Z,95.96
2022-09-03T14:59:09.512Z,96.22
2022-09-03T15:02:24.177Z,96.94
2022-09-03T15:05:15.776Z,97.09
2022-09-03T15:08:18.311Z,97.07
2022-09-03T15:11:17.337Z,97.33
2022-09-03T15:14:14.911Z,96.59
2022-09-03T15:17:20.713Z,96.83
2022-09-03T15:20:23.922Z,96.66
2022-09-03T15:23:24.327Z,96.62
2022-09-03T15:26:26.607Z,96.25
2022-09-03T15:33:42.875Z,96.27
2022-09-03T15:36:48.790Z,96.19
2022-09-03T15:39:39.851Z,95.88
2022-09-03T15:42:29.341Z,95.98
2022-09-03T15:45:19.290Z,95.88
2022-09-03T15:48:21.009Z,95.95
2022-09-03T15:51:20.602Z,95.93
2022-09-03T15:58:26.606Z,95.86
2022-09-03T16:01:40.032Z,95.79
2022-09-03T16:05:07.396Z,95.80
2022-09-03T16:08:19.877Z,95.77
2022-09-03T16:11:16.004Z,96.25
2022-09-03T16:14:37.049Z,96.50
2022-09-03T16:17:33.626Z,97.10
2022-09-03T16:20:27.890Z,97.49
2022-09-03T16:23:27.162Z,98.15
2022-09-03T16:26:18.847Z,98.32
2022-09-03T16:29:13.264Z,98.84
2022-09-03T16:36:12.724Z,98.98
2022-09-03T16:39:24.456Z,98.80
2022-09-03T16:42:45.491Z,98.78
2022-09-03T16:46:04.836Z,99.00
2022-09-03T16:49:05.595Z,99.08
2022-09-03T16:52:17.208Z,99.34
2022-09-03T16:55:21.455Z,99.53
2022-09-03T16:58:25.858Z,99.45
2022-09-03T17:01:34.075Z,99.86
2022-09-03T17:04:39.919Z,100.00
2022-09-03T17:08:06.166Z,100.00
2022-09-03T17:11:31.475Z,100.00
2022-09-03T17:14:18.836Z,100.00
2022-09-03T17:17:24.034Z,100.00
2022-09-03T17:20:49.523Z,100.00
2022-09-03T17:23:38.148Z,100.00
2022-09-03T17:27:06.067Z,100.00
2022-09-03T17:30:10.582Z,100.00
2022-09-03T17:37:35.180Z,100.00
2022-09-03T17:40:28.179Z,100.00
2022-09-03T17:43:20.852Z,100.00
2022-09-03T17:46:14.164Z,100.00
2022-09-03T17:49:03.398Z,100.00
2022-09-03T17:52:09.837Z,100.00
2022-09-03T17:55:02.618Z,100.00
2022-09-03T17:58:14.853Z,100.00
2022-09-03T18:01:10.767Z,100.00
2022-09-03T18:04:13.952Z,100.00
2022-09-03T18:07:23.700Z,100.00
2022-09-03T18:10:13.624Z,100.00
2022-09-03T18:13:23.557Z,99.86
2022-09-03T18:21:24.052Z,99.31
2022-09-03T18:24:53.038Z,99.28
2022-09-03T18:28:03.048Z,99.10
2022-09-03T18:31:09.240Z,98.96
2022-09-03T18:34:14.897Z,98.93
2022-09-03T18:41:33.659Z,98.47
2022-09-03T18:45:18.279Z,98.36
2022-09-03T18:52:54.149Z,97.71
2022-09-03T18:56:20.017Z,97.54
2022-09-03T18:59:40.864Z,97.39
2022-09-03T19:03:15.591Z,97.25
2022-09-03T19:10:13.432Z,97.07
2022-09-03T19:16:54.333Z,96.85
2022-09-03T19:20:20.595Z,96.79
2022-09-03T19:23:06.213Z,96.61
2022-09-03T19:25:51.772Z,96.83
2022-09-03T19:33:40.502Z,96.38
2022-09-03T19:37:05.782Z,96.32
2022-09-03T19:40:20.837Z,96.37
2022-09-03T19:43:54.563Z,96.24
2022-09-03T19:47:04.190Z,96.41
2022-09-03T19:50:15.810Z,96.40
2022-09-03T19:53:28.824Z,96.50
2022-09-03T20:00:35.790Z,96.41
2022-09-03T20:03:43.234Z,96.14
2022-09-03T20:10:55.863Z,95.88
2022-09-03T20:14:01.457Z,95.76
2022-09-03T20:17:12.279Z,95.59
2022-09-03T20:20:02.058Z,95.51
2022-09-03T20:23:19.643Z,95.44
2022-09-03T20:26:33.900Z,95.10
2022-09-03T20:34:28.519Z,94.86
2022-09-03T20:37:28.891Z,94.72
2022-09-03T20:40:26.977Z,94.41
2022-09-03T20:43:56.608Z,94.32
2022-09-03T20:46:46.757Z,94.10
2022-09-03T20:49:40.563Z,93.85
2022-09-03T20:53:02.121Z,93.50
2022-09-03T20:55:54.778Z,93.26
2022-09-03T20:58:41.797Z,93.29
2022-09-03T21:01:34.232Z,93.09
2022-09-03T21:08:31.954Z,92.88
2022-09-03T21:11:18.938Z,92.57
2022-09-03T21:14:36.598Z,92.69
2022-09-03T21:17:29.743Z,92.60
2022-09-03T21:20:55.927Z,92.67
2022-09-03T21:24:07.798Z,92.63
2022-09-03T21:27:05.307Z,92.68
2022-09-03T21:30:04.994Z,92.94
2022-09-03T21:33:17.253Z,92.67
2022-09-03T21:40:08.227Z,92.34
2022-09-03T21:47:06.311Z,92.46
2022-09-03T21:50:16.889Z,92.41
2022-09-03T21:53:19.152Z,92.25
2022-09-03T21:56:27.288Z,92.33
2022-09-03T21:59:35.634Z,92.27
2022-09-03T22:02:25.737Z,92.15
2022-09-03T22:05:14.558Z,91.96
2022-09-03T22:08:28.224Z,91.94
2022-09-03T22:15:26.092Z,92.00
2022-09-03T22:18:28.921Z,92.03
2022-09-03T22:21:21.834Z,91.83
2022-09-03T22:24:24.624Z,92.14
2022-09-03T22:27:26.382Z,92.29
2022-09-03T22:30:20.273Z,92.35
2022-09-03T22:33:22.228Z,92.27
2022-09-03T22:36:21.638Z,92.43
2022-09-03T22:39:36.628Z,92.61
2022-09-03T22:42:47.749Z,92.80
2022-09-03T22:45:38.379Z,92.92
2022-09-03T22:48:46.819Z,92.99
2022-09-03T22:52:00.364Z,93.26
2022-09-03T22:54:53.199Z,93.35
2022-09-03T22:57:52.518Z,93.52
2022-09-03T23:00:47.261Z,93.70
2022-09-03T23:03:48.463Z,93.80
2022-09-03T23:07:02.061Z,93.90
2022-09-03T23:09:57.535Z,93.92
2022-09-03T23:12:48.957Z,93.88
2022-09-03T23:15:30.326Z,93.98
2022-09-03T23:18:26.569Z,94.28
2022-09-03T23:21:22.355Z,94.44
2022-09-03T23:24:20.528Z,94.52
2022-09-03T23:27:14.963Z,94.57
2022-09-03T23:30:03.399Z,94.67
2022-09-03T23:32:56.035Z,94.80
2022-09-03T23:36:13.977Z,94.78
2022-09-03T23:39:23.212Z,94.99
2022-09-03T23:42:56.179Z,95.10
2022-09-03T23:49:22.167Z,95.18
2022-09-03T23:52:26.895Z,95.26
2022-09-03T23:55:37.440Z,95.50
2022-09-03T23:58:39.547Z,95.68
